Time;durP1;ratioP1;P1;durP2;ratioP2;P2;SDS_P1;SDS_P2;PMS_P1;PMS_P2;Temp;Humidity;BMP_temperature;BMP_pressure;BME280_temperature;BME280_humidity;BME280_pressure;Samples;Min_cycle;Max_cycle;Signal;HPM_P1;HPM_P2
2022/03/01 00:00:29;;;;;;;12.67;6.73;;;-0.70;99.90;;;;;;5021034;28;20217;-77
2022/03/01 00:02:55;;;;;;;14.40;7.17;;;-0.70;99.90;;;;;;5020666;28;20219;-80
2022/03/01 00:05:20;;;;;;;13.67;6.63;;;-0.70;99.90;;;;;;5020052;28;20179;-77
2022/03/01 00:07:46;;;;;;;12.87;6.17;;;-0.70;99.90;;;;;;5038425;28;20231;-76
2022/03/01 00:10:11;;;;;;;13.20;6.20;;;-0.70;99.90;;;;;;5033922;28;20211;-80
2022/03/01 00:12:37;;;;;;;10.17;6.10;;;-0.70;99.90;;;;;;5014231;28;20187;-79
2022/03/01 00:15:03;;;;;;;12.03;6.37;;;-0.70;99.90;;;;;;4997461;28;20207;-80
2022/03/01 00:17:29;;;;;;;12.67;6.77;;;-0.70;99.90;;;;;;5013547;28;20176;-78
2022/03/01 00:19:55;;;;;;;13.43;7.50;;;-0.70;99.90;;;;;;5012556;28;20250;-78
2022/03/01 00:22:20;;;;;;;11.37;6.60;;;-0.70;99.90;;;;;;4996298;28;20647;-79
2022/03/01 00:24:46;;;;;;;13.33;7.10;;;-0.70;99.90;;;;;;4998511;28;20195;-78
2022/03/01 00:27:12;;;;;;;12.60;6.60;;;-0.70;99.90;;;;;;4999131;28;20248;-79
2022/03/01 00:29:37;;;;;;;12.30;6.53;;;-0.80;99.90;;;;;;5013424;28;20702;-79
2022/03/01 00:32:03;;;;;;;12.77;7.47;;;-0.90;99.90;;;;;;4999501;28;20180;-79
2022/03/01 00:34:29;;;;;;;11.60;6.50;;;-0.90;99.90;;;;;;5000225;28;20208;-79
2022/03/01 00:36:54;;;;;;;11.87;6.73;;;-0.90;99.90;;;;;;5002178;28;20188;-81
2022/03/01 00:39:20;;;;;;;13.67;6.77;;;-0.90;99.90;;;;;;5007574;28;20209;-78
2022/03/01 00:41:46;;;;;;;12.87;7.33;;;-1.00;99.90;;;;;;5018645;28;20237;-80
2022/03/01 00:44:12;;;;;;;12.73;6.63;;;-1.10;99.90;;;;;;5002422;28;20179;-78
2022/03/01 00:46:38;;;;;;;14.10;7.50;;;-1.20;99.90;;;;;;5016429;28;20211;-79
2022/03/01 00:49:03;;;;;;;12.03;6.93;;;-1.20;99.90;;;;;;5001665;28;20195;-79
2022/03/01 00:51:29;;;;;;;11.27;6.87;;;-1.30;99.90;;;;;;5000560;28;20204;-78
2022/03/01 00:53:55;;;;;;;13.17;7.37;;;-1.20;99.90;;;;;;5002045;28;20694;-81
2022/03/01 00:56:21;;;;;;;11.13;6.60;;;-1.20;99.90;;;;;;5008655;28;20184;-78
2022/03/01 00:58:46;;;;;;;11.90;6.20;;;-1.30;99.90;;;;;;5017927;28;20234;-78
2022/03/01 01:01:12;;;;;;;13.40;7.37;;;-1.40;99.90;;;;;;4999818;28;20200;-81
2022/03/01 01:03:38;;;;;;;15.27;7.83;;;-1.50;99.90;;;;;;5002119;28;20200;-79
2022/03/01 01:06:04;;;;;;;11.17;7.17;;;-1.50;99.90;;;;;;5001427;28;20184;-79
2022/03/01 01:08:30;;;;;;;12.00;6.90;;;-1.60;99.90;;;;;;5001857;28;20295;-80
2022/03/01 01:10:56;;;;;;;14.47;8.20;;;-1.60;99.90;;;;;;5016645;28;21269;-79
2022/03/01 01:13:22;;;;;;;14.00;7.40;;;-1.70;99.90;;;;;;5002354;28;20218;-78
2022/03/01 01:15:48;;;;;;;12.97;7.03;;;-1.70;99.90;;;;;;5016375;28;20198;-81
2022/03/01 01:18:13;;;;;;;15.03;7.87;;;-1.70;99.90;;;;;;5007855;28;20243;-78
2022/03/01 01:20:39;;;;;;;14.10;7.37;;;-1.90;99.90;;;;;;5001293;28;20199;-78
2022/03/01 01:23:05;;;;;;;14.30;7.83;;;-1.90;99.90;;;;;;5001303;28;20619;-80
2022/03/01 01:25:31;;;;;;;15.07;8.10;;;-2.00;99.90;;;;;;5016522;28;20184;-79
2022/03/01 01:27:59;;;;;;;11.13;7.27;;;-2.10;99.90;;;;;;4998788;28;20195;-79
2022/03/01 01:30:27;;;;;;;14.07;7.17;;;-2.10;99.90;;;;;;5000901;28;20196;-79
2022/03/01 01:32:53;;;;;;;15.60;7.70;;;-2.10;99.90;;;;;;5001483;28;20185;-79
2022/03/01 01:35:25;;;;;;;14.00;8.00;;;-2.20;99.90;;;;;;5016071;28;20211;-79
2022/03/01 01:37:52;;;;;;;11.33;6.70;;;-2.20;99.90;;;;;;5016333;28;20570;-79
2022/03/01 01:40:23;;;;;;;16.07;7.67;;;-2.30;99.90;;;;;;5003355;28;20202;-79
2022/03/01 01:42:49;;;;;;;14.63;7.37;;;-2.30;99.90;;;;;;5000940;28;20271;-79
2022/03/01 01:45:15;;;;;;;14.67;7.30;;;-2.30;99.90;;;;;;5001377;28;20225;-81
2022/03/01 01:47:41;;;;;;;12.57;7.30;;;-2.30;99.90;;;;;;4999452;28;20184;-78
2022/03/01 01:50:08;;;;;;;13.37;7.37;;;-2.30;99.90;;;;;;4999993;28;20212;-78
2022/03/01 01:52:34;;;;;;;12.30;7.30;;;-2.30;99.90;;;;;;5001699;28;20250;-79
2022/03/01 01:54:59;;;;;;;12.97;7.30;;;-2.40;99.90;;;;;;5015694;28;20843;-79
2022/03/01 01:57:25;;;;;;;15.40;7.80;;;-2.50;99.90;;;;;;4998837;28;20222;-78
2022/03/01 01:59:54;;;;;;;13.27;7.87;;;-2.50;99.90;;;;;;4999595;28;20250;-77
2022/03/01 02:02:21;;;;;;;14.27;8.27;;;-2.50;99.90;;;;;;4998370;28;20360;-80
2022/03/01 02:04:47;;;;;;;15.23;7.90;;;-2.60;99.90;;;;;;5016806;28;20188;-78
2022/03/01 02:07:14;;;;;;;14.30;7.47;;;-2.70;99.90;;;;;;5001538;28;20816;-78
2022/03/01 02:09:40;;;;;;;12.27;7.40;;;-2.70;99.90;;;;;;5014003;28;20196;-78
2022/03/01 02:12:07;;;;;;;14.33;7.90;;;-2.70;99.90;;;;;;4999254;28;20216;-79
2022/03/01 02:14:35;;;;;;;15.57;8.57;;;-2.70;99.90;;;;;;5014324;28;20215;-79
2022/03/01 02:17:03;;;;;;;14.43;7.83;;;-2.80;99.90;;;;;;5000516;28;20188;-77
2022/03/01 02:19:29;;;;;;;14.27;8.53;;;-2.80;99.90;;;;;;4999014;28;20192;-79
2022/03/01 02:21:55;;;;;;;13.77;7.40;;;-2.90;99.90;;;;;;4998874;28;20672;-79
2022/03/01 02:24:22;;;;;;;14.30;7.87;;;-2.80;99.90;;;;;;4998723;28;20234;-79
2022/03/01 02:26:49;;;;;;;14.57;7.47;;;-2.80;99.90;;;;;;5001343;28;20195;-77
2022/03/01 02:29:15;;;;;;;13.40;8.20;;;-2.90;99.90;;;;;;5016362;28;20183;-78
2022/03/01 02:31:40;;;;;;;14.23;7.67;;;-3.00;99.90;;;;;;5014025;28;20227;-79
2022/03/01 02:34:06;;;;;;;14.20;7.73;;;-3.00;99.90;;;;;;4999199;28;20315;-77
2022/03/01 02:36:32;;;;;;;14.43;7.50;;;-3.00;99.90;;;;;;4999626;28;20251;-78
2022/03/01 02:38:58;;;;;;;15.70;8.50;;;-3.00;99.90;;;;;;5000796;28;20212;-76
2022/03/01 02:41:25;;;;;;;13.97;8.17;;;-3.00;99.90;;;;;;4999753;28;20199;-78
2022/03/01 02:43:51;;;;;;;12.37;7.63;;;-3.00;99.90;;;;;;5013110;28;20199;-77
2022/03/01 02:46:17;;;;;;;16.63;8.53;;;-3.00;99.90;;;;;;5013660;28;20179;-78
2022/03/01 02:48:42;;;;;;;14.77;8.07;;;-2.90;99.90;;;;;;4999806;28;20180;-78
2022/03/01 02:51:08;;;;;;;13.03;7.13;;;-3.00;99.90;;;;;;4998671;28;20242;-78
2022/03/01 02:53:36;;;;;;;13.33;8.10;;;-2.90;99.90;;;;;;5000848;28;20223;-78
2022/03/01 02:56:03;;;;;;;13.47;7.57;;;-2.90;99.90;;;;;;4999656;28;20642;-78
2022/03/01 02:58:28;;;;;;;12.03;7.60;;;-2.80;99.90;;;;;;5000986;28;20172;-78
2022/03/01 03:00:54;;;;;;;14.27;7.90;;;-2.80;99.90;;;;;;5000198;28;20258;-78
2022/03/01 03:03:20;;;;;;;12.80;7.47;;;-2.80;99.90;;;;;;5014472;28;20709;-78
2022/03/01 03:05:45;;;;;;;14.30;8.17;;;-2.70;99.90;;;;;;4999118;28;20192;-78
2022/03/01 03:08:11;;;;;;;16.17;8.53;;;-2.90;99.90;;;;;;5001804;28;20188;-78
2022/03/01 03:10:37;;;;;;;13.40;7.57;;;-2.90;99.90;;;;;;5001737;28;20240;-78
2022/03/01 03:13:03;;;;;;;14.10;8.03;;;-2.90;99.90;;;;;;5015591;28;20194;-78
2022/03/01 03:15:30;;;;;;;15.77;8.70;;;-2.90;99.90;;;;;;4999900;28;20255;-78
2022/03/01 03:17:55;;;;;;;14.63;7.67;;;-2.90;99.90;;;;;;5015308;28;20191;-78
2022/03/01 03:20:22;;;;;;;12.77;7.80;;;-2.90;99.90;;;;;;5014976;28;21038;-78
2022/03/01 03:22:47;;;;;;;12.90;7.93;;;-2.90;99.90;;;;;;5000329;28;20199;-78
2022/03/01 03:25:13;;;;;;;13.67;7.50;;;-3.10;99.90;;;;;;5012630;28;20188;-78
2022/03/01 03:27:39;;;;;;;15.27;8.00;;;-3.20;99.90;;;;;;5012681;28;20723;-77
2022/03/01 03:30:06;;;;;;;14.87;8.23;;;-3.20;99.90;;;;;;4996277;28;20215;-78
2022/03/01 03:32:32;;;;;;;12.60;7.47;;;-3.30;99.90;;;;;;4999627;28;20860;-78
2022/03/01 03:34:58;;;;;;;13.10;8.33;;;-3.30;99.90;;;;;;5000252;28;20203;-78
2022/03/01 03:37:24;;;;;;;11.77;6.43;;;-3.30;99.90;;;;;;5000079;28;20184;-78
2022/03/01 03:39:50;;;;;;;13.83;7.43;;;-3.40;99.90;;;;;;5000687;28;20218;-78
2022/03/01 03:42:15;;;;;;;14.43;7.40;;;-3.50;99.90;;;;;;5001573;28;21023;-78
2022/03/01 03:44:41;;;;;;;11.50;7.10;;;-3.50;99.90;;;;;;5001383;28;20191;-78
2022/03/01 03:47:07;;;;;;;17.57;9.30;;;-3.50;99.90;;;;;;4999594;28;20220;-78
2022/03/01 03:49:33;;;;;;;13.80;7.47;;;-3.60;99.90;;;;;;4999274;28;20188;-79
2022/03/01 03:52:02;;;;;;;13.03;7.20;;;-3.60;99.90;;;;;;5001343;28;20189;-80
2022/03/01 03:54:27;;;;;;;14.13;7.50;;;-3.70;99.90;;;;;;4998071;28;20221;-78
2022/03/01 03:56:53;;;;;;;13.53;7.93;;;-3.70;99.90;;;;;;5010787;28;20270;-80
2022/03/01 03:59:19;;;;;;;16.40;7.93;;;-3.80;99.90;;;;;;4995309;28;20184;-78
2022/03/01 04:01:44;;;;;;;13.93;8.13;;;-3.90;99.90;;;;;;4993493;28;20211;-79
2022/03/01 04:04:10;;;;;;;13.47;7.60;;;-3.90;99.90;;;;;;4997355;28;20198;-79
2022/03/01 04:06:36;;;;;;;12.53;7.40;;;-3.90;99.90;;;;;;5010032;28;20192;-80
2022/03/01 04:09:03;;;;;;;12.90;7.27;;;-3.90;99.90;;;;;;4995112;28;20218;-79
2022/03/01 04:11:29;;;;;;;12.80;7.13;;;-4.00;99.90;;;;;;4996768;28;21240;-77
2022/03/01 04:13:55;;;;;;;13.53;7.60;;;-4.00;99.90;;;;;;4997171;28;20203;-79
2022/03/01 04:16:20;;;;;;;12.03;7.40;;;-4.00;99.90;;;;;;4999464;28;20180;-78
2022/03/01 04:18:46;;;;;;;11.97;7.37;;;-4.00;99.90;;;;;;5013680;28;20557;-78
2022/03/01 04:21:12;;;;;;;14.33;7.97;;;-4.00;99.90;;;;;;4996933;28;20207;-79
2022/03/01 04:23:38;;;;;;;14.40;8.93;;;-4.00;99.90;;;;;;4996981;28;20207;-78
2022/03/01 04:26:04;;;;;;;13.70;7.23;;;-4.00;99.90;;;;;;4996242;28;20473;-79
2022/03/01 04:28:30;;;;;;;13.00;7.87;;;-3.90;99.90;;;;;;5013569;28;20195;-79
2022/03/01 04:30:56;;;;;;;12.53;7.70;;;-4.00;99.90;;;;;;4994850;28;20211;-79
2022/03/01 04:33:21;;;;;;;12.53;7.93;;;-4.00;99.90;;;;;;4997193;28;20245;-77
2022/03/01 04:35:48;;;;;;;13.27;7.73;;;-4.10;99.90;;;;;;4996806;28;20188;-79
2022/03/01 04:38:14;;;;;;;11.77;7.40;;;-4.10;99.90;;;;;;4998554;28;20647;-79
2022/03/01 04:40:39;;;;;;;16.60;8.17;;;-4.10;99.90;;;;;;4998195;28;20263;-79
2022/03/01 04:43:05;;;;;;;13.70;8.40;;;-4.10;99.90;;;;;;4999774;28;20184;-79
2022/03/01 04:45:31;;;;;;;12.57;7.77;;;-4.20;99.90;;;;;;4998889;28;21116;-79
2022/03/01 04:47:57;;;;;;;14.93;8.07;;;-4.20;99.90;;;;;;5004610;28;20254;-78
2022/03/01 04:50:23;;;;;;;14.80;7.87;;;-4.20;99.90;;;;;;4997970;28;20202;-80
2022/03/01 04:52:48;;;;;;;12.73;7.50;;;-4.20;99.90;;;;;;4998478;28;20704;-78
2022/03/01 04:55:15;;;;;;;14.90;7.97;;;-4.20;99.90;;;;;;5012524;28;20209;-79
2022/03/01 04:57:42;;;;;;;17.47;9.13;;;-4.20;99.90;;;;;;5000685;28;20693;-79
2022/03/01 05:00:10;;;;;;;13.80;7.77;;;-4.20;99.90;;;;;;4997074;28;20275;-81
2022/03/01 05:02:38;;;;;;;19.77;8.83;;;-4.10;99.90;;;;;;4996443;28;20287;-78
2022/03/01 05:05:04;;;;;;;12.43;7.10;;;-4.20;99.90;;;;;;4996527;28;20184;-79
2022/03/01 05:07:29;;;;;;;15.07;8.33;;;-4.30;99.90;;;;;;4995633;28;20183;-79
2022/03/01 05:09:55;;;;;;;14.80;8.17;;;-4.30;99.90;;;;;;5012372;28;20219;-79
2022/03/01 05:12:20;;;;;;;13.13;7.67;;;-4.40;99.90;;;;;;4995813;28;20193;-79
2022/03/01 05:14:46;;;;;;;13.43;8.20;;;-4.40;99.90;;;;;;5012555;28;21132;-79
2022/03/01 05:17:11;;;;;;;14.57;7.97;;;-4.50;99.90;;;;;;4995734;28;20204;-78
2022/03/01 05:19:37;;;;;;;14.03;7.47;;;-4.50;99.90;;;;;;5016130;28;20274;-80
2022/03/01 05:22:03;;;;;;;13.60;7.33;;;-4.50;99.90;;;;;;5001275;28;20239;-78
2022/03/01 05:24:29;;;;;;;15.33;7.03;;;-4.40;99.90;;;;;;5001226;28;20676;-78
2022/03/01 05:26:54;;;;;;;13.77;7.47;;;-4.30;99.90;;;;;;5001604;28;20192;-80
2022/03/01 05:29:20;;;;;;;13.87;7.47;;;-4.30;99.90;;;;;;4999938;28;20188;-80
2022/03/01 05:31:46;;;;;;;14.33;7.33;;;-4.30;99.90;;;;;;4999118;28;20670;-82
2022/03/01 05:34:12;;;;;;;15.77;7.97;;;-4.40;99.90;;;;;;5000398;28;20214;-81
2022/03/01 05:36:38;;;;;;;14.07;8.00;;;-4.40;99.90;;;;;;5001356;28;21055;-81
2022/03/01 05:39:03;;;;;;;16.07;8.83;;;-4.50;99.90;;;;;;5000654;28;20184;-78
2022/03/01 05:41:29;;;;;;;17.53;8.87;;;-4.50;99.90;;;;;;4999048;28;20646;-78
2022/03/01 05:43:54;;;;;;;14.43;8.23;;;-4.40;99.90;;;;;;5000304;28;20183;-78
2022/03/01 05:46:20;;;;;;;14.67;8.27;;;-4.40;99.90;;;;;;4998331;28;20187;-78
2022/03/01 05:48:45;;;;;;;18.40;8.50;;;-4.40;99.90;;;;;;5015013;28;20683;-79
2022/03/01 05:51:11;;;;;;;14.77;7.53;;;-4.30;99.90;;;;;;5014501;28;20207;-81
2022/03/01 05:53:37;;;;;;;16.07;8.33;;;-4.40;99.90;;;;;;4998082;28;20294;-79
2022/03/01 05:56:02;;;;;;;14.37;8.37;;;-4.40;99.90;;;;;;5000032;28;20259;-78
2022/03/01 05:58:28;;;;;;;14.17;8.17;;;-4.50;99.90;;;;;;4999295;28;20180;-79
2022/03/01 06:00:53;;;;;;;11.97;7.70;;;-4.50;99.90;;;;;;4999037;28;20204;-78
2022/03/01 06:03:19;;;;;;;15.20;7.93;;;-4.50;99.90;;;;;;5005140;28;21016;-79
2022/03/01 06:05:45;;;;;;;14.60;8.00;;;-4.40;99.90;;;;;;4999792;28;20701;-78
2022/03/01 06:08:10;;;;;;;15.10;7.80;;;-4.40;99.90;;;;;;5014644;28;20191;-77
2022/03/01 06:10:36;;;;;;;12.43;7.87;;;-4.30;99.90;;;;;;4999448;28;20253;-82
2022/03/01 06:13:01;;;;;;;15.63;9.00;;;-4.30;99.90;;;;;;4996759;28;20348;-80
2022/03/01 06:15:27;;;;;;;13.90;8.20;;;-4.40;99.90;;;;;;5015691;28;20226;-79
2022/03/01 06:17:53;;;;;;;13.93;8.60;;;-4.30;99.90;;;;;;4996941;28;20193;-77
2022/03/01 06:20:18;;;;;;;15.10;7.67;;;-4.20;99.90;;;;;;4999487;28;20207;-81
2022/03/01 06:22:44;;;;;;;12.93;7.57;;;-4.20;99.90;;;;;;5001351;28;20187;-83
2022/03/01 06:25:11;;;;;;;13.33;7.80;;;-4.10;99.90;;;;;;5014750;28;20184;-80
2022/03/01 06:27:38;;;;;;;14.37;7.70;;;-4.00;99.90;;;;;;5012549;28;20624;-79
2022/03/01 06:30:05;;;;;;;13.27;7.87;;;-4.00;99.90;;;;;;5012062;28;20211;-83
2022/03/01 06:32:30;;;;;;;16.17;9.20;;;-4.00;99.90;;;;;;4997481;28;20191;-80
2022/03/01 06:34:56;;;;;;;15.73;7.70;;;-3.80;99.90;;;;;;5006825;28;20204;-83
2022/03/01 06:37:22;;;;;;;15.57;8.33;;;-3.80;99.90;;;;;;5015797;28;20238;-77
2022/03/01 06:39:50;;;;;;;14.23;7.97;;;-3.80;99.90;;;;;;5006513;28;20191;-79
2022/03/01 06:42:16;;;;;;;14.20;8.20;;;-3.80;99.90;;;;;;5006612;28;20184;-81
2022/03/01 06:44:42;;;;;;;14.30;7.40;;;-3.70;99.90;;;;;;4998040;28;20184;-77
2022/03/01 06:47:08;;;;;;;11.80;7.60;;;-3.70;99.90;;;;;;5016096;28;20274;-76
2022/03/01 06:49:34;;;;;;;14.80;8.67;;;-3.70;99.90;;;;;;5015831;28;20200;-81
2022/03/01 06:52:00;;;;;;;14.17;8.27;;;-3.60;99.90;;;;;;5004588;28;20535;-80
2022/03/01 06:54:26;;;;;;;15.70;8.67;;;-3.60;99.90;;;;;;4999855;28;20219;-79
2022/03/01 06:56:52;;;;;;;14.63;7.97;;;-3.50;99.90;;;;;;5001302;28;20610;-81
2022/03/01 06:59:17;;;;;;;14.67;8.50;;;-3.50;99.90;;;;;;5001928;28;20187;-78
2022/03/01 07:01:43;;;;;;;14.30;8.03;;;-3.40;99.90;;;;;;4998863;28;20215;-85
2022/03/01 07:04:08;;;;;;;15.87;8.60;;;-3.30;99.90;;;;;;4995965;28;20191;-78
2022/03/01 07:06:34;;;;;;;14.93;8.57;;;-3.20;99.90;;;;;;5012999;28;20214;-79
2022/03/01 07:09:00;;;;;;;15.27;8.37;;;-3.10;99.90;;;;;;4996303;28;20176;-81
2022/03/01 07:11:25;;;;;;;12.77;7.93;;;-3.10;99.90;;;;;;5011746;28;21228;-80
2022/03/01 07:13:51;;;;;;;13.53;8.50;;;-3.10;99.90;;;;;;5010359;28;20211;-80
2022/03/01 07:16:17;;;;;;;15.60;8.47;;;-3.00;99.90;;;;;;4996347;28;20183;-80
2022/03/01 07:18:43;;;;;;;13.60;7.53;;;-2.90;99.90;;;;;;5011513;28;20181;-79
2022/03/01 07:21:09;;;;;;;12.27;7.70;;;-2.70;99.90;;;;;;4996885;28;21288;-81
2022/03/01 07:23:35;;;;;;;15.03;7.83;;;-2.60;99.90;;;;;;5012837;28;20187;-80
2022/03/01 07:26:04;;;;;;;14.90;7.60;;;-2.50;99.90;;;;;;4994406;28;20184;-78
2022/03/01 07:28:30;;;;;;;12.90;8.70;;;-2.40;99.90;;;;;;4995147;28;20184;-81
2022/03/01 07:30:56;;;;;;;13.97;8.27;;;-2.20;99.90;;;;;;5012822;28;20333;-80
2022/03/01 07:33:22;;;;;;;14.87;8.17;;;-2.10;99.90;;;;;;4997063;28;20271;-81
2022/03/01 07:35:48;;;;;;;14.70;8.67;;;-1.90;99.90;;;;;;5012673;28;20210;-82
2022/03/01 07:38:14;;;;;;;14.37;8.17;;;-1.80;99.90;;;;;;4997757;28;20233;-79
2022/03/01 07:40:39;;;;;;;14.33;7.87;;;-1.70;99.90;;;;;;4996749;28;20901;-78
2022/03/01 07:43:07;;;;;;;14.53;7.97;;;-1.60;99.90;;;;;;5004594;28;20196;-76
2022/03/01 07:45:34;;;;;;;16.13;7.70;;;-1.50;99.90;;;;;;4995579;28;20209;-81
2022/03/01 07:48:01;;;;;;;15.70;8.57;;;-1.40;99.90;;;;;;5003975;28;20188;-82
2022/03/01 07:50:28;;;;;;;13.83;8.50;;;-1.40;99.90;;;;;;4997328;28;20203;-82
2022/03/01 07:52:54;;;;;;;13.70;8.27;;;-1.30;99.90;;;;;;5010146;28;20282;-81
2022/03/01 07:55:21;;;;;;;15.47;7.67;;;-1.10;99.90;;;;;;4998142;28;20451;-80
2022/03/01 07:57:46;;;;;;;14.20;8.37;;;-1.00;99.90;;;;;;4995613;28;20184;-80
2022/03/01 08:00:12;;;;;;;13.83;7.80;;;-1.00;99.90;;;;;;4997547;28;20207;-77
2022/03/01 08:02:39;;;;;;;12.50;7.27;;;-0.90;99.90;;;;;;5010041;28;20203;-79
2022/03/01 08:05:06;;;;;;;13.77;7.90;;;-0.80;99.90;;;;;;4998552;28;20218;-78
2022/03/01 08:07:33;;;;;;;11.17;6.97;;;-0.80;99.90;;;;;;4987068;28;20188;-79
2022/03/01 08:09:58;;;;;;;13.40;7.50;;;-0.60;99.90;;;;;;5002772;28;20211;-79
2022/03/01 08:12:24;;;;;;;11.87;7.57;;;-0.50;99.90;;;;;;5014845;28;20224;-81
2022/03/01 08:14:49;;;;;;;13.50;6.93;;;-0.50;99.90;;;;;;4992141;28;20220;-79
2022/03/01 08:17:15;;;;;;;12.00;6.90;;;-0.40;99.90;;;;;;4984556;28;20242;-78
2022/03/01 08:19:42;;;;;;;13.83;6.77;;;-0.30;99.90;;;;;;5001321;28;20302;-81
2022/03/01 08:22:07;;;;;;;13.97;8.37;;;-0.20;99.90;;;;;;4988348;28;20236;-78
2022/03/01 08:24:33;;;;;;;10.10;6.50;;;-0.10;99.90;;;;;;5001178;28;20219;-78
2022/03/01 08:26:59;;;;;;;12.07;7.50;;;0.00;99.90;;;;;;4997277;28;20187;-79
2022/03/01 08:29:25;;;;;;;11.90;6.83;;;0.10;99.90;;;;;;4986721;28;20722;-77
2022/03/01 08:31:50;;;;;;;9.97;6.17;;;0.20;99.90;;;;;;4993021;28;20211;-82
2022/03/01 08:34:16;;;;;;;12.13;7.20;;;0.20;99.90;;;;;;4992688;28;20478;-80
2022/03/01 08:36:41;;;;;;;11.17;7.00;;;0.40;99.90;;;;;;4993122;28;20267;-77
2022/03/01 08:39:07;;;;;;;12.13;7.60;;;0.30;99.90;;;;;;4996293;28;20671;-75
2022/03/01 08:41:33;;;;;;;12.50;6.50;;;0.50;99.90;;;;;;5006172;28;20704;-78
2022/03/01 08:43:58;;;;;;;12.83;7.43;;;0.70;99.90;;;;;;5002662;28;20183;-77
2022/03/01 08:46:24;;;;;;;11.93;6.80;;;0.80;99.90;;;;;;4989114;28;20244;-82
2022/03/01 08:48:53;;;;;;;12.53;7.13;;;1.00;99.90;;;;;;4984508;28;20200;-79
2022/03/01 08:51:22;;;;;;;11.00;7.13;;;0.90;99.90;;;;;;5005272;28;20430;-82
2022/03/01 08:53:51;;;;;;;11.73;7.60;;;1.00;99.90;;;;;;4992527;28;20211;-79
2022/03/01 08:56:17;;;;;;;12.37;6.80;;;0.90;99.90;;;;;;4992088;28;20212;-81
2022/03/01 08:58:44;;;;;;;10.17;6.13;;;1.00;99.90;;;;;;4995698;28;20204;-78
2022/03/01 09:01:10;;;;;;;11.10;6.80;;;1.10;99.90;;;;;;4990795;28;20254;-76
2022/03/01 09:03:36;;;;;;;13.70;6.30;;;1.20;99.90;;;;;;5009059;28;20207;-80
2022/03/01 09:06:06;;;;;;;11.67;7.20;;;1.30;99.90;;;;;;5016318;28;20184;-79
2022/03/01 09:08:33;;;;;;;12.87;7.00;;;1.50;99.90;;;;;;5001813;28;20675;-80
2022/03/01 09:10:59;;;;;;;12.63;6.37;;;1.60;99.90;;;;;;5001518;28;20207;-81
2022/03/01 09:13:25;;;;;;;10.37;6.23;;;1.60;99.90;;;;;;5000644;28;20208;-81
2022/03/01 09:15:50;;;;;;;10.80;7.03;;;1.80;99.90;;;;;;5002858;28;20226;-79
2022/03/01 09:18:16;;;;;;;10.87;6.50;;;1.90;99.90;;;;;;5002639;28;20270;-81
2022/03/01 09:20:41;;;;;;;11.73;6.93;;;2.10;99.90;;;;;;5001360;28;20204;-79
2022/03/01 09:23:07;;;;;;;12.87;7.13;;;2.20;99.90;;;;;;5000505;28;20202;-77
2022/03/01 09:25:33;;;;;;;11.37;6.33;;;2.10;99.90;;;;;;5001927;28;20682;-77
2022/03/01 09:27:58;;;;;;;12.53;6.60;;;2.00;99.90;;;;;;4998159;28;20184;-78
2022/03/01 09:30:24;;;;;;;10.87;6.77;;;2.00;99.90;;;;;;5017395;28;20235;-79
2022/03/01 09:32:50;;;;;;;11.57;6.70;;;2.10;99.90;;;;;;5007538;28;20184;-78
2022/03/01 09:35:17;;;;;;;11.87;6.97;;;2.30;99.90;;;;;;5002086;28;20196;-78
2022/03/01 09:37:43;;;;;;;10.33;6.03;;;2.40;99.90;;;;;;4999032;28;20223;-80
2022/03/01 09:40:11;;;;;;;11.60;6.40;;;2.50;99.90;;;;;;5001001;28;20576;-78
2022/03/01 09:42:38;;;;;;;13.93;6.93;;;2.50;99.90;;;;;;5001688;28;20187;-77
2022/03/01 09:45:04;;;;;;;11.53;6.53;;;2.70;99.90;;;;;;5015959;28;20183;-79
2022/03/01 09:47:30;;;;;;;9.87;6.27;;;2.90;99.90;;;;;;5001186;28;20180;-78
2022/03/01 09:49:57;;;;;;;9.90;6.20;;;3.00;99.90;;;;;;4999908;28;20302;-81
2022/03/01 09:52:23;;;;;;;9.07;5.90;;;3.30;99.90;;;;;;5004036;28;20191;-77
2022/03/01 09:54:50;;;;;;;9.07;6.07;;;3.40;99.90;;;;;;5007507;28;20212;-77
2022/03/01 09:57:17;;;;;;;9.23;6.63;;;3.70;99.90;;;;;;5012015;28;20576;-80
2022/03/01 09:59:43;;;;;;;10.20;6.30;;;3.70;99.90;;;;;;5009523;28;20192;-79
2022/03/01 10:02:09;;;;;;;11.90;6.53;;;3.50;99.90;;;;;;4994173;28;20195;-78
2022/03/01 10:04:55;;;;;;;9.90;5.80;;;3.60;99.90;;;;;;4988994;28;20672;-78
2022/03/01 10:07:25;;;;;;;10.77;5.97;;;3.70;99.90;;;;;;5004278;28;20602;-79
2022/03/01 10:09:51;;;;;;;9.40;5.70;;;3.90;99.90;;;;;;5008866;28;20204;-81
2022/03/01 10:12:25;;;;;;;9.43;6.30;;;4.10;99.90;;;;;;5010748;28;20534;-81
2022/03/01 10:15:05;;;;;;;10.37;6.33;;;4.20;99.90;;;;;;4993599;28;20215;-79
2022/03/01 10:17:40;;;;;;;9.73;6.27;;;4.30;99.90;;;;;;5014183;28;20185;-78
2022/03/01 10:20:11;;;;;;;8.93;6.10;;;4.50;99.90;;;;;;4996075;28;20250;-80
2022/03/01 10:22:42;;;;;;;9.03;6.03;;;4.40;99.90;;;;;;5008956;28;20270;-77
2022/03/01 10:25:08;;;;;;;9.20;5.77;;;4.40;99.90;;;;;;4987492;28;20211;-79
2022/03/01 10:27:34;;;;;;;9.43;6.03;;;4.60;99.90;;;;;;5008352;28;20199;-79
2022/03/01 10:30:02;;;;;;;9.47;5.70;;;4.80;99.90;;;;;;5010998;28;20239;-78
2022/03/01 10:32:28;;;;;;;10.13;6.07;;;5.10;99.90;;;;;;4998783;28;20184;-79
2022/03/01 10:35:06;;;;;;;10.40;6.50;;;5.30;99.90;;;;;;5012657;28;20264;-78
2022/03/01 10:37:34;;;;;;;10.63;5.97;;;5.40;99.90;;;;;;5015657;28;20654;-78
2022/03/01 10:40:11;;;;;;;11.37;5.80;;;5.30;99.90;;;;;;4991519;28;20214;-79
2022/03/01 10:42:38;;;;;;;9.83;5.40;;;5.40;99.90;;;;;;4994292;28;20190;-80
2022/03/01 10:45:06;;;;;;;10.20;6.33;;;5.50;99.90;;;;;;4992391;28;20566;-77
2022/03/01 10:47:32;;;;;;;9.50;6.43;;;5.60;99.90;;;;;;4990424;28;20315;-79
2022/03/01 10:50:11;;;;;;;10.00;5.93;;;5.70;99.90;;;;;;5013732;28;20578;-80
2022/03/01 10:52:39;;;;;;;9.53;6.20;;;5.90;99.90;;;;;;4995966;28;20594;-79
2022/03/01 10:55:07;;;;;;;9.67;5.90;;;6.10;99.90;;;;;;4996898;28;20315;-78
2022/03/01 10:57:33;;;;;;;8.90;5.50;;;6.30;99.90;;;;;;4996184;28;20203;-79
2022/03/01 10:59:58;;;;;;;10.43;5.93;;;6.30;99.90;;;;;;4992470;28;20216;-81
2022/03/01 11:02:24;;;;;;;8.43;6.10;;;6.40;99.90;;;;;;4991918;28;20196;-78
2022/03/01 11:04:51;;;;;;;8.13;5.50;;;6.30;99.90;;;;;;5010400;28;20190;-80
2022/03/01 11:07:19;;;;;;;9.70;6.30;;;6.30;99.90;;;;;;5006639;28;20602;-79
2022/03/01 11:09:45;;;;;;;7.40;5.33;;;6.30;99.90;;;;;;5003673;28;20462;-80
2022/03/01 11:12:12;;;;;;;9.43;5.70;;;6.30;99.90;;;;;;4996116;28;20213;-80
2022/03/01 11:14:43;;;;;;;8.73;5.60;;;6.20;99.90;;;;;;4999458;28;20203;-80
2022/03/01 11:17:20;;;;;;;9.37;5.87;;;6.30;99.90;;;;;;5001779;28;20659;-81
2022/03/01 11:20:00;;;;;;;7.50;5.10;;;6.60;99.90;;;;;;4993694;28;20852;-82
2022/03/01 11:23:06;;;;;;;8.83;5.53;;;6.80;99.90;;;;;;4993262;28;20187;-82
2022/03/01 11:25:41;;;;;;;9.37;5.40;;;6.80;99.90;;;;;;5003702;28;20249;-81
2022/03/01 11:28:09;;;;;;;9.00;5.73;;;7.00;99.90;;;;;;4996690;28;20175;-80
2022/03/01 11:30:51;;;;;;;7.30;5.20;;;7.20;99.90;;;;;;5005121;28;20211;-81
2022/03/01 11:33:36;;;;;;;8.00;5.67;;;7.10;99.10;;;;;;4995935;28;20282;-82
2022/03/01 11:36:04;;;;;;;7.57;5.60;;;7.30;99.70;;;;;;5012593;28;20215;-80
2022/03/01 11:38:32;;;;;;;7.07;5.00;;;7.50;98.90;;;;;;4997835;28;20655;-80
2022/03/01 11:41:19;;;;;;;11.97;5.97;;;7.70;96.60;;;;;;4995748;28;20210;-77
2022/03/01 11:43:52;;;;;;;7.37;5.23;;;7.80;96.10;;;;;;4994381;28;20306;-81
2022/03/01 11:46:19;;;;;;;7.63;5.33;;;7.80;96.30;;;;;;5004499;28;20176;-79
2022/03/01 11:48:56;;;;;;;9.20;5.93;;;7.60;95.40;;;;;;4998300;28;20188;-79
2022/03/01 11:51:33;;;;;;;7.93;5.57;;;7.50;94.50;;;;;;4994822;28;20200;-80
2022/03/01 11:54:03;;;;;;;8.63;5.87;;;7.70;94.50;;;;;;4998355;28;20611;-77
2022/03/01 11:56:28;;;;;;;8.90;5.50;;;7.60;94.70;;;;;;4998810;28;20176;-79
2022/03/01 11:59:02;;;;;;;8.83;5.53;;;7.60;95.20;;;;;;4998396;28;20192;-81
2022/03/01 12:01:27;;;;;;;8.47;5.83;;;7.50;93.60;;;;;;5005802;28;20211;-79
2022/03/01 12:04:03;;;;;;;7.33;5.63;;;7.30;94.90;;;;;;4997114;28;20203;-78
2022/03/01 12:06:30;;;;;;;9.03;5.70;;;7.30;94.00;;;;;;4997465;28;20176;-79
2022/03/01 12:09:03;;;;;;;8.37;5.30;;;7.30;93.60;;;;;;4999217;28;20191;-79
2022/03/01 12:11:46;;;;;;;8.13;5.53;;;7.50;94.20;;;;;;5000098;28;20211;-82
2022/03/01 12:14:16;;;;;;;8.03;5.60;;;7.50;93.70;;;;;;4999433;28;20211;-80
2022/03/01 12:16:42;;;;;;;8.30;5.60;;;7.60;93.30;;;;;;4999401;28;20176;-78
2022/03/01 12:19:09;;;;;;;8.03;5.67;;;7.70;92.90;;;;;;4997105;28;20180;-80
2022/03/01 12:21:36;;;;;;;9.50;6.07;;;7.80;91.20;;;;;;5005584;28;20297;-81
2022/03/01 12:24:02;;;;;;;7.77;5.37;;;7.70;90.70;;;;;;5005429;28;20191;-79
2022/03/01 12:26:28;;;;;;;8.10;5.30;;;7.70;91.50;;;;;;4999857;28;20187;-81
2022/03/01 12:28:59;;;;;;;9.47;5.80;;;7.70;91.20;;;;;;5002872;28;20723;-80
2022/03/01 12:31:28;;;;;;;7.93;5.67;;;7.80;91.60;;;;;;5002260;28;20681;-81
2022/03/01 12:33:56;;;;;;;6.77;5.37;;;7.80;92.10;;;;;;5003049;28;20311;-80
2022/03/01 12:36:25;;;;;;;9.73;6.03;;;7.90;91.50;;;;;;5000570;28;20178;-78
2022/03/01 12:39:11;;;;;;;8.47;5.60;;;7.80;90.40;;;;;;4999820;28;20196;-79
2022/03/01 12:41:37;;;;;;;9.00;5.80;;;7.70;90.30;;;;;;5001496;28;20214;-79